sensor_id;sensor_type;location;lat;lon;timestamp;P1;durP1;ratioP1;P2;durP2;ratioP2
20699;SDS011;10511;51.232;9.420;2023-04-02T00:07:55;1.10;;;1.10;;
20699;SDS011;10511;51.232;9.420;2023-04-02T00:10:25;1.10;;;1.10;;
20699;SDS011;10511;51.232;9.420;2023-04-02T00:13:04;1.10;;;1.10;;
20699;SDS011;10511;51.232;9.420;2023-04-02T00:15:32;1.10;;;1.10;;
20699;SDS011;10511;51.232;9.420;2023-04-02T00:18:01;1.20;;;1.20;;
20699;SDS011;10511;51.232;9.420;2023-04-02T00:20:29;1.20;;;1.20;;
20699;SDS011;10511;51.232;9.420;2023-04-02T00:23:00;1.17;;;1.17;;
20699;SDS011;10511;51.232;9.420;2023-04-02T00:25:29;1.20;;;1.20;;
20699;SDS011;10511;51.232;9.420;2023-04-02T00:28:01;1.10;;;1.10;;
20699;SDS011;10511;51.232;9.420;2023-04-02T00:30:28;1.20;;;1.20;;
20699;SDS011;10511;51.232;9.420;2023-04-02T00:32:55;1.20;;;1.20;;
20699;SDS011;10511;51.232;9.420;2023-04-02T00:35:25;1.10;;;1.10;;
20699;SDS011;10511;51.232;9.420;2023-04-02T00:37:54;1.20;;;1.20;;
20699;SDS011;10511;51.232;9.420;2023-04-02T00:40:23;1.20;;;1.20;;
20699;SDS011;10511;51.232;9.420;2023-04-02T00:42:51;1.10;;;1.10;;
20699;SDS011;10511;51.232;9.420;2023-04-02T00:45:21;1.10;;;1.10;;
20699;SDS011;10511;51.232;9.420;2023-04-02T00:47:52;1.10;;;1.10;;
20699;SDS011;10511;51.232;9.420;2023-04-02T00:50:25;1.20;;;1.20;;
20699;SDS011;10511;51.232;9.420;2023-04-02T00:52:56;1.20;;;1.20;;
20699;SDS011;10511;51.232;9.420;2023-04-02T00:55:26;1.20;;;1.20;;
20699;SDS011;10511;51.232;9.420;2023-04-02T00:57:58;1.30;;;1.30;;
20699;SDS011;10511;51.232;9.420;2023-04-02T01:00:26;1.30;;;1.30;;
20699;SDS011;10511;51.232;9.420;2023-04-02T01:03:22;1.20;;;1.20;;
20699;SDS011;10511;51.232;9.420;2023-04-02T01:06:00;1.20;;;1.20;;
20699;SDS011;10511;51.232;9.420;2023-04-02T01:14:41;1.20;;;1.20;;
20699;SDS011;10511;51.232;9.420;2023-04-02T01:17:16;1.30;;;1.30;;
20699;SDS011;10511;51.232;9.420;2023-04-02T01:20:03;1.30;;;1.30;;
20699;SDS011;10511;51.232;9.420;2023-04-02T01:22:48;1.30;;;1.30;;
20699;SDS011;10511;51.232;9.420;2023-04-02T01:25:23;1.30;;;1.30;;
20699;SDS011;10511;51.232;9.420;2023-04-02T01:27:54;1.30;;;1.30;;
20699;SDS011;10511;51.232;9.420;2023-04-02T01:30:30;1.20;;;1.20;;
20699;SDS011;10511;51.232;9.420;2023-04-02T01:32:58;1.30;;;1.30;;
20699;SDS011;10511;51.232;9.420;2023-04-02T01:35:25;1.30;;;1.30;;
20699;SDS011;10511;51.232;9.420;2023-04-02T01:37:59;1.30;;;1.30;;
20699;SDS011;10511;51.232;9.420;2023-04-02T01:40:33;1.20;;;1.20;;
20699;SDS011;10511;51.232;9.420;2023-04-02T01:43:06;1.10;;;1.10;;
20699;SDS011;10511;51.232;9.420;2023-04-02T01:45:40;1.20;;;1.20;;
20699;SDS011;10511;51.232;9.420;2023-04-02T01:48:08;1.13;;;1.13;;
20699;SDS011;10511;51.232;9.420;2023-04-02T01:50:40;1.20;;;1.20;;
20699;SDS011;10511;51.232;9.420;2023-04-02T01:53:11;1.20;;;1.20;;
20699;SDS011;10511;51.232;9.420;2023-04-02T01:55:41;1.30;;;1.30;;
20699;SDS011;10511;51.232;9.420;2023-04-02T01:58:10;1.30;;;1.30;;
20699;SDS011;10511;51.232;9.420;2023-04-02T02:00:40;1.20;;;1.20;;
20699;SDS011;10511;51.232;9.420;2023-04-02T02:03:13;1.20;;;1.20;;
20699;SDS011;10511;51.232;9.420;2023-04-02T02:05:40;1.30;;;1.30;;
20699;SDS011;10511;51.232;9.420;2023-04-02T02:08:11;1.20;;;1.20;;
20699;SDS011;10511;51.232;9.420;2023-04-02T02:10:55;1.20;;;1.20;;
20699;SDS011;10511;51.232;9.420;2023-04-02T02:13:22;1.20;;;1.20;;
20699;SDS011;10511;51.232;9.420;2023-04-02T02:15:51;1.30;;;1.30;;
20699;SDS011;10511;51.232;9.420;2023-04-02T02:18:21;1.30;;;1.30;;
20699;SDS011;10511;51.232;9.420;2023-04-02T02:20:49;1.20;;;1.20;;
20699;SDS011;10511;51.232;9.420;2023-04-02T02:23:17;1.17;;;1.17;;
20699;SDS011;10511;51.232;9.420;2023-04-02T02:25:44;1.20;;;1.20;;
20699;SDS011;10511;51.232;9.420;2023-04-02T02:28:13;1.30;;;1.30;;
20699;SDS011;10511;51.232;9.420;2023-04-02T02:30:43;1.10;;;1.10;;
20699;SDS011;10511;51.232;9.420;2023-04-02T02:33:15;1.10;;;1.10;;
20699;SDS011;10511;51.232;9.420;2023-04-02T02:35:47;1.20;;;1.20;;
20699;SDS011;10511;51.232;9.420;2023-04-02T02:38:28;1.20;;;1.20;;
20699;SDS011;10511;51.232;9.420;2023-04-02T02:41:11;1.27;;;1.27;;
20699;SDS011;10511;51.232;9.420;2023-04-02T02:43:43;1.10;;;1.10;;
20699;SDS011;10511;51.232;9.420;2023-04-02T02:46:15;1.20;;;1.20;;
20699;SDS011;10511;51.232;9.420;2023-04-02T02:48:46;1.20;;;1.20;;
20699;SDS011;10511;51.232;9.420;2023-04-02T02:51:16;1.20;;;1.20;;
20699;SDS011;10511;51.232;9.420;2023-04-02T02:53:47;1.23;;;1.23;;
20699;SDS011;10511;51.232;9.420;2023-04-02T02:56:19;1.20;;;1.20;;
20699;SDS011;10511;51.232;9.420;2023-04-02T02:58:48;1.30;;;1.30;;
20699;SDS011;10511;51.232;9.420;2023-04-02T03:01:17;1.20;;;1.20;;
20699;SDS011;10511;51.232;9.420;2023-04-02T03:03:45;1.20;;;1.20;;
20699;SDS011;10511;51.232;9.420;2023-04-02T03:06:14;1.10;;;1.10;;
20699;SDS011;10511;51.232;9.420;2023-04-02T03:08:46;1.20;;;1.20;;
20699;SDS011;10511;51.232;9.420;2023-04-02T03:11:20;1.17;;;1.17;;
20699;SDS011;10511;51.232;9.420;2023-04-02T03:13:54;1.20;;;1.20;;
20699;SDS011;10511;51.232;9.420;2023-04-02T03:16:29;1.30;;;1.30;;
20699;SDS011;10511;51.232;9.420;2023-04-02T03:19:03;1.20;;;1.20;;
20699;SDS011;10511;51.232;9.420;2023-04-02T03:21:35;1.20;;;1.20;;
20699;SDS011;10511;51.232;9.420;2023-04-02T03:24:09;1.20;;;1.20;;
20699;SDS011;10511;51.232;9.420;2023-04-02T03:26:42;1.10;;;1.10;;
20699;SDS011;10511;51.232;9.420;2023-04-02T03:29:12;1.20;;;1.20;;
20699;SDS011;10511;51.232;9.420;2023-04-02T03:31:43;1.20;;;1.20;;
20699;SDS011;10511;51.232;9.420;2023-04-02T03:34:17;1.20;;;1.20;;
20699;SDS011;10511;51.232;9.420;2023-04-02T03:36:48;1.20;;;1.20;;
20699;SDS011;10511;51.232;9.420;2023-04-02T03:39:21;1.20;;;1.20;;
20699;SDS011;10511;51.232;9.420;2023-04-02T03:41:53;1.10;;;1.10;;
20699;SDS011;10511;51.232;9.420;2023-04-02T03:44:25;1.30;;;1.30;;
20699;SDS011;10511;51.232;9.420;2023-04-02T03:46:56;1.30;;;1.30;;
20699;SDS011;10511;51.232;9.420;2023-04-02T03:49:32;1.30;;;1.30;;
20699;SDS011;10511;51.232;9.420;2023-04-02T03:52:04;1.30;;;1.30;;
20699;SDS011;10511;51.232;9.420;2023-04-02T03:54:35;1.10;;;1.10;;
20699;SDS011;10511;51.232;9.420;2023-04-02T03:57:03;1.20;;;1.20;;
20699;SDS011;10511;51.232;9.420;2023-04-02T03:59:35;1.20;;;1.20;;
20699;SDS011;10511;51.232;9.420;2023-04-02T04:02:11;1.20;;;1.20;;
20699;SDS011;10511;51.232;9.420;2023-04-02T04:04:46;1.10;;;1.10;;
20699;SDS011;10511;51.232;9.420;2023-04-02T04:07:18;1.20;;;1.20;;
20699;SDS011;10511;51.232;9.420;2023-04-02T04:09:47;1.20;;;1.20;;
20699;SDS011;10511;51.232;9.420;2023-04-02T04:12:19;1.13;;;1.13;;
20699;SDS011;10511;51.232;9.420;2023-04-02T04:14:52;1.20;;;1.20;;
20699;SDS011;10511;51.232;9.420;2023-04-02T04:17:24;1.10;;;1.10;;
20699;SDS011;10511;51.232;9.420;2023-04-02T04:20:00;1.20;;;1.20;;
20699;SDS011;10511;51.232;9.420;2023-04-02T04:22:33;1.20;;;1.20;;
20699;SDS011;10511;51.232;9.420;2023-04-02T04:25:00;1.13;;;1.13;;
20699;SDS011;10511;51.232;9.420;2023-04-02T04:27:30;1.20;;;1.20;;
20699;SDS011;10511;51.232;9.420;2023-04-02T04:30:02;1.30;;;1.30;;
20699;SDS011;10511;51.232;9.420;2023-04-02T04:32:35;1.20;;;1.20;;
20699;SDS011;10511;51.232;9.420;2023-04-02T04:35:05;1.30;;;1.30;;
20699;SDS011;10511;51.232;9.420;2023-04-02T04:37:41;1.30;;;1.30;;
20699;SDS011;10511;51.232;9.420;2023-04-02T04:40:15;1.20;;;1.20;;
20699;SDS011;10511;51.232;9.420;2023-04-02T04:42:46;1.30;;;1.30;;
20699;SDS011;10511;51.232;9.420;2023-04-02T04:45:22;1.20;;;1.20;;
20699;SDS011;10511;51.232;9.420;2023-04-02T04:48:00;1.30;;;1.30;;
20699;SDS011;10511;51.232;9.420;2023-04-02T04:50:31;1.30;;;1.30;;
20699;SDS011;10511;51.232;9.420;2023-04-02T04:53:05;1.20;;;1.20;;
20699;SDS011;10511;51.232;9.420;2023-04-02T04:55:34;1.33;;;1.33;;
20699;SDS011;10511;51.232;9.420;2023-04-02T04:58:07;1.30;;;1.30;;
20699;SDS011;10511;51.232;9.420;2023-04-02T05:00:50;1.40;;;1.40;;
20699;SDS011;10511;51.232;9.420;2023-04-02T05:03:24;1.30;;;1.30;;
20699;SDS011;10511;51.232;9.420;2023-04-02T05:06:00;1.30;;;1.30;;
20699;SDS011;10511;51.232;9.420;2023-04-02T05:08:32;1.20;;;1.20;;
20699;SDS011;10511;51.232;9.420;2023-04-02T05:11:02;1.40;;;1.40;;
20699;SDS011;10511;51.232;9.420;2023-04-02T05:13:35;1.20;;;1.20;;
20699;SDS011;10511;51.232;9.420;2023-04-02T05:16:08;1.40;;;1.40;;
20699;SDS011;10511;51.232;9.420;2023-04-02T05:18:42;1.30;;;1.30;;
20699;SDS011;10511;51.232;9.420;2023-04-02T05:21:20;1.30;;;1.30;;
20699;SDS011;10511;51.232;9.420;2023-04-02T05:23:58;1.40;;;1.40;;
20699;SDS011;10511;51.232;9.420;2023-04-02T05:26:32;1.50;;;1.50;;
20699;SDS011;10511;51.232;9.420;2023-04-02T05:29:14;1.40;;;1.40;;
20699;SDS011;10511;51.232;9.420;2023-04-02T05:31:48;1.30;;;1.30;;
20699;SDS011;10511;51.232;9.420;2023-04-02T05:34:22;1.30;;;1.30;;
20699;SDS011;10511;51.232;9.420;2023-04-02T05:36:54;1.37;;;1.37;;
20699;SDS011;10511;51.232;9.420;2023-04-02T05:39:21;1.30;;;1.30;;
20699;SDS011;10511;51.232;9.420;2023-04-02T05:41:55;1.40;;;1.40;;
20699;SDS011;10511;51.232;9.420;2023-04-02T05:44:26;1.30;;;1.30;;
20699;SDS011;10511;51.232;9.420;2023-04-02T05:46:56;1.20;;;1.20;;
20699;SDS011;10511;51.232;9.420;2023-04-02T05:49:27;1.30;;;1.30;;
20699;SDS011;10511;51.232;9.420;2023-04-02T05:52:02;1.30;;;1.30;;
20699;SDS011;10511;51.232;9.420;2023-04-02T05:54:31;1.30;;;1.30;;
20699;SDS011;10511;51.232;9.420;2023-04-02T05:57:05;1.30;;;1.30;;
20699;SDS011;10511;51.232;9.420;2023-04-02T05:59:38;1.50;;;1.50;;
20699;SDS011;10511;51.232;9.420;2023-04-02T06:02:12;1.53;;;1.53;;
20699;SDS011;10511;51.232;9.420;2023-04-02T06:04:45;1.40;;;1.40;;
20699;SDS011;10511;51.232;9.420;2023-04-02T06:07:21;1.50;;;1.50;;
20699;SDS011;10511;51.232;9.420;2023-04-02T06:09:50;1.40;;;1.40;;
20699;SDS011;10511;51.232;9.420;2023-04-02T06:12:26;1.40;;;1.40;;
20699;SDS011;10511;51.232;9.420;2023-04-02T06:14:56;1.40;;;1.40;;
20699;SDS011;10511;51.232;9.420;2023-04-02T06:17:23;1.40;;;1.40;;
20699;SDS011;10511;51.232;9.420;2023-04-02T06:19:51;1.40;;;1.40;;
20699;SDS011;10511;51.232;9.420;2023-04-02T06:22:23;1.40;;;1.40;;
20699;SDS011;10511;51.232;9.420;2023-04-02T06:24:57;1.50;;;1.50;;
20699;SDS011;10511;51.232;9.420;2023-04-02T06:27:27;1.50;;;1.50;;
20699;SDS011;10511;51.232;9.420;2023-04-02T06:29:56;1.40;;;1.40;;
20699;SDS011;10511;51.232;9.420;2023-04-02T06:32:26;1.50;;;1.50;;
20699;SDS011;10511;51.232;9.420;2023-04-02T06:34:53;1.40;;;1.40;;
20699;SDS011;10511;51.232;9.420;2023-04-02T06:37:23;1.40;;;1.40;;
20699;SDS011;10511;51.232;9.420;2023-04-02T06:39:54;1.40;;;1.40;;
20699;SDS011;10511;51.232;9.420;2023-04-02T06:42:22;1.50;;;1.50;;
20699;SDS011;10511;51.232;9.420;2023-04-02T06:44:52;1.40;;;1.40;;
20699;SDS011;10511;51.232;9.420;2023-04-02T06:47:23;1.40;;;1.40;;
20699;SDS011;10511;51.232;9.420;2023-04-02T06:49:56;1.40;;;1.40;;
20699;SDS011;10511;51.232;9.420;2023-04-02T06:52:28;1.50;;;1.50;;
20699;SDS011;10511;51.232;9.420;2023-04-02T06:54:59;1.40;;;1.40;;
20699;SDS011;10511;51.232;9.420;2023-04-02T06:57:32;1.40;;;1.40;;
20699;SDS011;10511;51.232;9.420;2023-04-02T06:59:59;1.50;;;1.50;;
20699;SDS011;10511;51.232;9.420;2023-04-02T07:02:28;1.40;;;1.40;;
20699;SDS011;10511;51.232;9.420;2023-04-02T07:05:00;1.50;;;1.50;;
20699;SDS011;10511;51.232;9.420;2023-04-02T07:07:30;1.43;;;1.43;;
20699;SDS011;10511;51.232;9.420;2023-04-02T07:09:57;1.40;;;1.40;;
20699;SDS011;10511;51.232;9.420;2023-04-02T07:12:24;1.40;;;1.40;;
20699;SDS011;10511;51.232;9.420;2023-04-02T07:14:52;1.40;;;1.40;;
20699;SDS011;10511;51.232;9.420;2023-04-02T07:17:19;1.50;;;1.50;;
20699;SDS011;10511;51.232;9.420;2023-04-02T07:19:46;1.40;;;1.40;;
20699;SDS011;10511;51.232;9.420;2023-04-02T07:22:14;1.50;;;1.50;;
20699;SDS011;10511;51.232;9.420;2023-04-02T07:24:43;1.53;;;1.53;;
20699;SDS011;10511;51.232;9.420;2023-04-02T07:27:11;1.40;;;1.40;;
20699;SDS011;10511;51.232;9.420;2023-04-02T07:29:39;1.40;;;1.40;;
20699;SDS011;10511;51.232;9.420;2023-04-02T07:32:07;1.40;;;1.40;;
20699;SDS011;10511;51.232;9.420;2023-04-02T07:34:35;1.40;;;1.40;;
20699;SDS011;10511;51.232;9.420;2023-04-02T07:37:03;1.40;;;1.40;;
20699;SDS011;10511;51.232;9.420;2023-04-02T07:39:30;1.30;;;1.30;;
20699;SDS011;10511;51.232;9.420;2023-04-02T07:41:59;1.43;;;1.43;;
20699;SDS011;10511;51.232;9.420;2023-04-02T07:44:27;1.47;;;1.47;;
20699;SDS011;10511;51.232;9.420;2023-04-02T07:46:54;1.40;;;1.40;;
20699;SDS011;10511;51.232;9.420;2023-04-02T07:49:21;1.40;;;1.40;;
20699;SDS011;10511;51.232;9.420;2023-04-02T07:51:48;1.30;;;1.30;;
20699;SDS011;10511;51.232;9.420;2023-04-02T07:54:17;1.40;;;1.40;;
20699;SDS011;10511;51.232;9.420;2023-04-02T07:56:43;1.40;;;1.40;;
20699;SDS011;10511;51.232;9.420;2023-04-02T07:59:12;1.40;;;1.40;;
20699;SDS011;10511;51.232;9.420;2023-04-02T08:01:39;1.47;;;1.47;;
20699;SDS011;10511;51.232;9.420;2023-04-02T08:04:08;1.30;;;1.30;;
20699;SDS011;10511;51.232;9.420;2023-04-02T08:06:42;1.40;;;1.40;;
20699;SDS011;10511;51.232;9.420;2023-04-02T08:09:09;1.40;;;1.40;;
20699;SDS011;10511;51.232;9.420;2023-04-02T08:11:36;1.40;;;1.40;;
20699;SDS011;10511;51.232;9.420;2023-04-02T08:14:04;1.33;;;1.33;;
20699;SDS011;10511;51.232;9.420;2023-04-02T08:16:43;1.37;;;1.37;;
20699;SDS011;10511;51.232;9.420;2023-04-02T08:19:14;1.40;;;1.40;;
20699;SDS011;10511;51.232;9.420;2023-04-02T08:21:42;1.40;;;1.40;;
20699;SDS011;10511;51.232;9.420;2023-04-02T08:24:09;1.30;;;1.30;;
20699;SDS011;10511;51.232;9.420;2023-04-02T08:26:36;1.30;;;1.30;;
20699;SDS011;10511;51.232;9.420;2023-04-02T08:29:03;1.40;;;1.40;;
20699;SDS011;10511;51.232;9.420;2023-04-02T08:31:30;1.30;;;1.30;;
20699;SDS011;10511;51.232;9.420;2023-04-02T08:33:58;1.40;;;1.40;;
20699;SDS011;10511;51.232;9.420;2023-04-02T08:36:26;1.40;;;1.40;;
20699;SDS011;10511;51.232;9.420;2023-04-02T08:38:55;1.40;;;1.40;;
20699;SDS011;10511;51.232;9.420;2023-04-02T08:41:23;1.30;;;1.30;;
20699;SDS011;10511;51.232;9.420;2023-04-02T08:43:59;1.20;;;1.20;;
20699;SDS011;10511;51.232;9.420;2023-04-02T08:46:39;1.30;;;1.30;;
20699;SDS011;10511;51.232;9.420;2023-04-02T08:49:12;1.40;;;1.40;;
20699;SDS011;10511;51.232;9.420;2023-04-02T08:51:41;1.37;;;1.37;;
20699;SDS011;10511;51.232;9.420;2023-04-02T08:54:12;1.50;;;1.50;;
20699;SDS011;10511;51.232;9.420;2023-04-02T08:56:45;1.40;;;1.40;;
20699;SDS011;10511;51.232;9.420;2023-04-02T08:59:17;1.30;;;1.30;;
20699;SDS011;10511;51.232;9.420;2023-04-02T09:01:51;1.30;;;1.30;;
20699;SDS011;10511;51.232;9.420;2023-04-02T09:04:23;1.30;;;1.30;;
20699;SDS011;10511;51.232;9.420;2023-04-02T09:06:52;1.40;;;1.40;;
20699;SDS011;10511;51.232;9.420;2023-04-02T09:09:21;1.40;;;1.40;;
20699;SDS011;10511;51.232;9.420;2023-04-02T09:11:51;1.30;;;1.30;;
20699;SDS011;10511;51.232;9.420;2023-04-02T09:14:20;1.40;;;1.40;;
20699;SDS011;10511;51.232;9.420;2023-04-02T09:16:57;1.40;;;1.40;;
20699;SDS011;10511;51.232;9.420;2023-04-02T09:19:31;1.30;;;1.30;;
20699;SDS011;10511;51.232;9.420;2023-04-02T09:22:03;1.40;;;1.40;;
20699;SDS011;10511;51.232;9.420;2023-04-02T09:24:33;1.30;;;1.30;;
20699;SDS011;10511;51.232;9.420;2023-04-02T09:27:01;1.37;;;1.37;;
20699;SDS011;10511;51.232;9.420;2023-04-02T09:29:35;1.30;;;1.30;;
20699;SDS011;10511;51.232;9.420;2023-04-02T09:32:14;1.30;;;1.30;;
20699;SDS011;10511;51.232;9.420;2023-04-02T09:34:51;1.43;;;1.43;;
20699;SDS011;10511;51.232;9.420;2023-04-02T09:37:36;1.40;;;1.40;;
20699;SDS011;10511;51.232;9.420;2023-04-02T09:43:02;1.33;;;1.33;;
20699;SDS011;10511;51.232;9.420;2023-04-02T09:45:31;1.40;;;1.40;;
20699;SDS011;10511;51.232;9.420;2023-04-02T09:47:58;1.40;;;1.40;;
20699;SDS011;10511;51.232;9.420;2023-04-02T09:50:27;1.40;;;1.40;;
20699;SDS011;10511;51.232;9.420;2023-04-02T09:52:56;1.40;;;1.40;;
20699;SDS011;10511;51.232;9.420;2023-04-02T09:55:24;1.40;;;1.40;;
20699;SDS011;10511;51.232;9.420;2023-04-02T09:58:06;1.40;;;1.40;;
20699;SDS011;10511;51.232;9.420;2023-04-02T10:00:36;1.40;;;1.40;;
20699;SDS011;10511;51.232;9.420;2023-04-02T10:03:05;1.40;;;1.40;;
20699;SDS011;10511;51.232;9.420;2023-04-02T10:05:44;1.43;;;1.43;;
20699;SDS011;10511;51.232;9.420;2023-04-02T10:08:17;1.30;;;1.30;;
20699;SDS011;10511;51.232;9.420;2023-04-02T10:10:45;1.40;;;1.40;;
20699;SDS011;10511;51.232;9.420;2023-04-02T10:13:16;1.30;;;1.30;;
20699;SDS011;10511;51.232;9.420;2023-04-02T10:15:49;1.30;;;1.30;;
20699;SDS011;10511;51.232;9.420;2023-04-02T10:18:20;1.40;;;1.40;;
20699;SDS011;10511;51.232;9.420;2023-04-02T10:20:56;1.40;;;1.40;;
20699;SDS011;10511;51.232;9.420;2023-04-02T10:23:27;1.40;;;1.40;;
20699;SDS011;10511;51.232;9.420;2023-04-02T10:25:57;1.30;;;1.30;;
20699;SDS011;10511;51.232;9.420;2023-04-02T10:28:40;1.40;;;1.40;;
20699;SDS011;10511;51.232;9.420;2023-04-02T10:31:17;1.30;;;1.30;;
20699;SDS011;10511;51.232;9.420;2023-04-02T10:33:49;1.40;;;1.40;;
20699;SDS011;10511;51.232;9.420;2023-04-02T10:36:22;1.40;;;1.40;;
20699;SDS011;10511;51.232;9.420;2023-04-02T10:38:57;1.40;;;1.40;;
20699;SDS011;10511;51.232;9.420;2023-04-02T10:41:30;1.30;;;1.30;;
20699;SDS011;10511;51.232;9.420;2023-04-02T10:44:11;1.30;;;1.30;;
20699;SDS011;10511;51.232;9.420;2023-04-02T10:47:00;1.40;;;1.40;;
20699;SDS011;10511;51.232;9.420;2023-04-02T10:49:37;1.40;;;1.40;;
20699;SDS011;10511;51.232;9.420;2023-04-02T10:52:09;1.30;;;1.30;;
20699;SDS011;10511;51.232;9.420;2023-04-02T10:54:42;1.30;;;1.30;;
20699;SDS011;10511;51.232;9.420;2023-04-02T10:57:17;1.50;;;1.50;;
20699;SDS011;10511;51.232;9.420;2023-04-02T10:59:50;1.20;;;1.20;;
20699;SDS011;10511;51.232;9.420;2023-04-02T11:02:32;1.40;;;1.40;;
20699;SDS011;10511;51.232;9.420;2023-04-02T11:05:05;1.30;;;1.30;;
20699;SDS011;10511;51.232;9.420;2023-04-02T11:07:48;1.30;;;1.30;;
20699;SDS011;10511;51.232;9.420;2023-04-02T11:10:19;1.20;;;1.20;;
20699;SDS011;10511;51.232;9.420;2023-04-02T11:12:49;1.20;;;1.20;;
20699;SDS011;10511;51.232;9.420;2023-04-02T11:15:20;1.30;;;1.30;;
20699;SDS011;10511;51.232;9.420;2023-04-02T11:17:47;1.30;;;1.30;;
20699;SDS011;10511;51.232;9.420;2023-04-02T11:23:30;1.40;;;1.40;;
20699;SDS011;10511;51.232;9.420;2023-04-02T11:29:01;1.40;;;1.40;;
20699;SDS011;10511;51.232;9.420;2023-04-02T11:31:34;1.30;;;1.30;;
20699;SDS011;10511;51.232;9.420;2023-04-02T11:34:01;1.30;;;1.30;;
20699;SDS011;10511;51.232;9.420;2023-04-02T11:42:23;1.30;;;1.30;;
20699;SDS011;10511;51.232;9.420;2023-04-02T11:44:52;1.30;;;1.30;;
20699;SDS011;10511;51.232;9.420;2023-04-02T11:47:20;1.37;;;1.37;;
20699;SDS011;10511;51.232;9.420;2023-04-02T11:52:32;1.40;;;1.40;;
20699;SDS011;10511;51.232;9.420;2023-04-02T12:01:01;1.30;;;1.30;;
20699;SDS011;10511;51.232;9.420;2023-04-02T12:04:13;1.30;;;1.30;;
20699;SDS011;10511;51.232;9.420;2023-04-02T12:07:26;1.30;;;1.30;;
20699;SDS011;10511;51.232;9.420;2023-04-02T12:10:03;1.30;;;1.30;;
20699;SDS011;10511;51.232;9.420;2023-04-02T12:12:37;1.30;;;1.30;;
20699;SDS011;10511;51.232;9.420;2023-04-02T12:15:27;1.20;;;1.20;;
20699;SDS011;10511;51.232;9.420;2023-04-02T12:18:02;1.20;;;1.20;;
20699;SDS011;10511;51.232;9.420;2023-04-02T12:20:31;1.30;;;1.30;;
20699;SDS011;10511;51.232;9.420;2023-04-02T12:22:59;1.30;;;1.30;;
20699;SDS011;10511;51.232;9.420;2023-04-02T12:25:28;1.40;;;1.40;;
20699;SDS011;10511;51.232;9.420;2023-04-02T12:28:04;1.20;;;1.20;;
20699;SDS011;10511;51.232;9.420;2023-04-02T12:30:34;1.20;;;1.20;;
20699;SDS011;10511;51.232;9.420;2023-04-02T12:33:15;1.30;;;1.30;;
20699;SDS011;10511;51.232;9.420;2023-04-02T12:35:54;1.20;;;1.20;;
20699;SDS011;10511;51.232;9.420;2023-04-02T12:38:23;1.30;;;1.30;;
20699;SDS011;10511;51.232;9.420;2023-04-02T12:40:52;1.20;;;1.20;;
20699;SDS011;10511;51.232;9.420;2023-04-02T12:43:24;1.20;;;1.20;;
20699;SDS011;10511;51.232;9.420;2023-04-02T12:45:54;1.27;;;1.27;;
20699;SDS011;10511;51.232;9.420;2023-04-02T12:48:22;1.17;;;1.17;;
20699;SDS011;10511;51.232;9.420;2023-04-02T12:50:51;1.20;;;1.20;;
20699;SDS011;10511;51.232;9.420;2023-04-02T12:53:19;1.13;;;1.13;;
20699;SDS011;10511;51.232;9.420;2023-04-02T12:55:48;1.20;;;1.20;;
20699;SDS011;10511;51.232;9.420;2023-04-02T12:58:26;1.27;;;1.27;;
20699;SDS011;10511;51.232;9.420;2023-04-02T13:01:16;1.13;;;1.13;;
20699;SDS011;10511;51.232;9.420;2023-04-02T13:03:57;1.10;;;1.10;;
20699;SDS011;10511;51.232;9.420;2023-04-02T13:06:30;1.10;;;1.10;;
20699;SDS011;10511;51.232;9.420;2023-04-02T13:08:58;1.10;;;1.10;;
20699;SDS011;10511;51.232;9.420;2023-04-02T13:11:33;1.23;;;1.23;;
20699;SDS011;10511;51.232;9.420;2023-04-02T13:14:02;1.20;;;1.20;;
20699;SDS011;10511;51.232;9.420;2023-04-02T13:16:33;1.20;;;1.20;;
20699;SDS011;10511;51.232;9.420;2023-04-02T13:19:09;1.20;;;1.20;;
20699;SDS011;10511;51.232;9.420;2023-04-02T13:21:58;1.40;;;1.40;;
20699;SDS011;10511;51.232;9.420;2023-04-02T13:24:27;1.27;;;1.27;;
20699;SDS011;10511;51.232;9.420;2023-04-02T13:26:56;1.30;;;1.30;;
20699;SDS011;10511;51.232;9.420;2023-04-02T13:29:25;1.10;;;1.10;;
20699;SDS011;10511;51.232;9.420;2023-04-02T13:31:55;1.10;;;1.10;;
20699;SDS011;10511;51.232;9.420;2023-04-02T13:34:23;1.20;;;1.20;;
20699;SDS011;10511;51.232;9.420;2023-04-02T13:36:51;1.20;;;1.20;;
20699;SDS011;10511;51.232;9.420;2023-04-02T13:39:18;1.30;;;1.30;;
20699;SDS011;10511;51.232;9.420;2023-04-02T13:41:46;1.20;;;1.20;;
20699;SDS011;10511;51.232;9.420;2023-04-02T13:44:19;1.20;;;1.20;;
20699;SDS011;10511;51.232;9.420;2023-04-02T13:46:48;1.20;;;1.20;;
20699;SDS011;10511;51.232;9.420;2023-04-02T13:49:17;1.10;;;1.10;;
20699;SDS011;10511;51.232;9.420;2023-04-02T13:51:45;1.20;;;1.20;;
20699;SDS011;10511;51.232;9.420;2023-04-02T13:54:17;1.20;;;1.20;;
20699;SDS011;10511;51.232;9.420;2023-04-02T13:56:47;1.23;;;1.23;;
20699;SDS011;10511;51.232;9.420;2023-04-02T13:59:14;1.20;;;1.20;;
20699;SDS011;10511;51.232;9.420;2023-04-02T14:01:42;1.23;;;1.23;;
20699;SDS011;10511;51.232;9.420;2023-04-02T14:04:11;1.13;;;1.13;;
20699;SDS011;10511;51.232;9.420;2023-04-02T14:06:48;1.20;;;1.20;;
20699;SDS011;10511;51.232;9.420;2023-04-02T14:09:29;1.23;;;1.23;;
20699;SDS011;10511;51.232;9.420;2023-04-02T14:12:05;1.20;;;1.20;;
20699;SDS011;10511;51.232;9.420;2023-04-02T14:14:49;1.10;;;1.10;;
20699;SDS011;10511;51.232;9.420;2023-04-02T14:17:31;1.23;;;1.23;;
20699;SDS011;10511;51.232;9.420;2023-04-02T14:20:13;1.20;;;1.20;;
20699;SDS011;10511;51.232;9.420;2023-04-02T14:22:54;1.30;;;1.30;;
20699;SDS011;10511;51.232;9.420;2023-04-02T14:25:32;1.20;;;1.20;;
20699;SDS011;10511;51.232;9.420;2023-04-02T14:28:05;1.20;;;1.20;;
20699;SDS011;10511;51.232;9.420;2023-04-02T14:30:46;1.20;;;1.20;;
20699;SDS011;10511;51.232;9.420;2023-04-02T14:33:22;1.20;;;1.20;;
20699;SDS011;10511;51.232;9.420;2023-04-02T14:35:56;1.20;;;1.20;;
20699;SDS011;10511;51.232;9.420;2023-04-02T14:38:35;1.20;;;1.20;;
20699;SDS011;10511;51.232;9.420;2023-04-02T14:41:08;1.10;;;1.10;;
20699;SDS011;10511;51.232;9.420;2023-04-02T14:43:43;1.13;;;1.13;;
20699;SDS011;10511;51.232;9.420;2023-04-02T14:46:15;1.10;;;1.10;;
20699;SDS011;10511;51.232;9.420;2023-04-02T14:48:44;1.10;;;1.10;;
20699;SDS011;10511;51.232;9.420;2023-04-02T14:51:19;1.20;;;1.20;;
20699;SDS011;10511;51.232;9.420;2023-04-02T14:53:53;1.20;;;1.20;;
20699;SDS011;10511;51.232;9.420;2023-04-02T14:56:26;1.10;;;1.10;;
20699;SDS011;10511;51.232;9.420;2023-04-02T14:58:59;1.20;;;1.20;;
20699;SDS011;10511;51.232;9.420;2023-04-02T15:01:36;1.10;;;1.10;;
20699;SDS011;10511;51.232;9.420;2023-04-02T15:04:10;1.10;;;1.10;;
20699;SDS011;10511;51.232;9.420;2023-04-02T15:06:40;1.10;;;1.10;;
20699;SDS011;10511;51.232;9.420;2023-04-02T15:09:13;1.10;;;1.10;;
20699;SDS011;10511;51.232;9.420;2023-04-02T15:11:45;1.10;;;1.10;;
20699;SDS011;10511;51.232;9.420;2023-04-02T15:14:16;1.20;;;1.20;;
20699;SDS011;10511;51.232;9.420;2023-04-02T15:16:45;1.17;;;1.17;;
20699;SDS011;10511;51.232;9.420;2023-04-02T15:19:13;1.20;;;1.20;;
20699;SDS011;10511;51.232;9.420;2023-04-02T15:21:48;1.20;;;1.20;;
20699;SDS011;10511;51.232;9.420;2023-04-02T15:24:29;1.20;;;1.20;;
20699;SDS011;10511;51.232;9.420;2023-04-02T15:27:02;1.20;;;1.20;;
20699;SDS011;10511;51.232;9.420;2023-04-02T15:29:43;1.10;;;1.10;;
20699;SDS011;10511;51.232;9.420;2023-04-02T15:32:18;1.20;;;1.20;;
20699;SDS011;10511;51.232;9.420;2023-04-02T15:34:55;1.20;;;1.20;;
20699;SDS011;10511;51.232;9.420;2023-04-02T15:37:27;1.20;;;1.20;;
20699;SDS011;10511;51.232;9.420;2023-04-02T15:40:04;1.20;;;1.20;;
20699;SDS011;10511;51.232;9.420;2023-04-02T15:42:42;1.30;;;1.30;;
20699;SDS011;10511;51.232;9.420;2023-04-02T15:45:21;1.20;;;1.20;;
20699;SDS011;10511;51.232;9.420;2023-04-02T15:48:10;1.23;;;1.23;;
20699;SDS011;10511;51.232;9.420;2023-04-02T15:50:53;1.20;;;1.20;;
20699;SDS011;10511;51.232;9.420;2023-04-02T15:53:29;1.20;;;1.20;;
20699;SDS011;10511;51.232;9.420;2023-04-02T15:56:14;1.30;;;1.30;;